sensor_id;sensor_type;location;lat;lon;timestamp;pressure;altitude;pressure_sealevel;temperature;humidity
28181;BME280;15464;50.988;10.318;2023-12-20T00:01:02;98660.59;;;3.32;100.00
28181;BME280;15464;50.988;10.318;2023-12-20T00:03:29;98662.28;;;3.33;100.00
28181;BME280;15464;50.988;10.318;2023-12-20T00:06:07;98666.78;;;3.31;100.00
28181;BME280;15464;50.988;10.318;2023-12-20T00:08:34;98667.53;;;3.33;100.00
28181;BME280;15464;50.988;10.318;2023-12-20T00:11:01;98667.53;;;3.33;100.00
28181;BME280;15464;50.988;10.318;2023-12-20T00:13:27;98668.94;;;3.38;100.00
28181;BME280;15464;50.988;10.318;2023-12-20T00:15:54;98664.72;;;3.36;100.00
28181;BME280;15464;50.988;10.318;2023-12-20T00:18:21;98652.19;;;3.41;100.00
28181;BME280;15464;50.988;10.318;2023-12-20T00:20:47;98660.59;;;3.46;100.00
28181;BME280;15464;50.988;10.318;2023-12-20T00:23:14;98675.13;;;3.37;100.00
28181;BME280;15464;50.988;10.318;2023-12-20T00:25:44;98671.47;;;3.40;100.00
28181;BME280;15464;50.988;10.318;2023-12-20T00:28:11;98668.66;;;3.43;100.00
28181;BME280;15464;50.988;10.318;2023-12-20T00:30:38;98666.06;;;3.43;100.00
28181;BME280;15464;50.988;10.318;2023-12-20T00:33:05;98660.44;;;3.49;100.00
28181;BME280;15464;50.988;10.318;2023-12-20T00:35:32;98668.19;;;3.50;100.00
28181;BME280;15464;50.988;10.318;2023-12-20T00:37:59;98666.41;;;3.51;100.00
28181;BME280;15464;50.988;10.318;2023-12-20T00:40:25;98664.06;;;3.46;100.00
28181;BME280;15464;50.988;10.318;2023-12-20T00:42:52;98662.47;;;3.44;100.00
28181;BME280;15464;50.988;10.318;2023-12-20T00:45:19;98660.81;;;3.43;100.00
28181;BME280;15464;50.988;10.318;2023-12-20T00:47:46;98658.34;;;3.40;100.00
28181;BME280;15464;50.988;10.318;2023-12-20T00:50:13;98654.59;;;3.44;100.00
28181;BME280;15464;50.988;10.318;2023-12-20T00:52:40;98660.59;;;3.46;100.00
28181;BME280;15464;50.988;10.318;2023-12-20T00:55:07;98652.94;;;3.43;100.00
28181;BME280;15464;50.988;10.318;2023-12-20T00:57:34;98658.75;;;3.48;100.00
28181;BME280;15464;50.988;10.318;2023-12-20T01:00:01;98657.81;;;3.49;100.00
28181;BME280;15464;50.988;10.318;2023-12-20T01:02:28;98664.16;;;3.45;100.00
28181;BME280;15464;50.988;10.318;2023-12-20T01:04:55;98660.53;;;3.47;100.00
28181;BME280;15464;50.988;10.318;2023-12-20T01:07:22;98659.59;;;3.48;100.00
28181;BME280;15464;50.988;10.318;2023-12-20T01:09:49;98657.22;;;3.44;100.00
28181;BME280;15464;50.988;10.318;2023-12-20T01:12:16;98649.19;;;3.47;100.00
28181;BME280;15464;50.988;10.318;2023-12-20T01:14:42;98647.03;;;3.53;100.00
28181;BME280;15464;50.988;10.318;2023-12-20T01:17:09;98643.41;;;3.56;100.00
28181;BME280;15464;50.988;10.318;2023-12-20T01:19:36;98649.28;;;3.59;100.00
28181;BME280;15464;50.988;10.318;2023-12-20T01:22:03;98645.06;;;3.57;100.00
28181;BME280;15464;50.988;10.318;2023-12-20T01:24:30;98645.81;;;3.59;100.00
28181;BME280;15464;50.988;10.318;2023-12-20T01:26:57;98652.75;;;3.60;100.00
28181;BME280;15464;50.988;10.318;2023-12-20T01:29:24;98638.16;;;3.56;100.00
28181;BME280;15464;50.988;10.318;2023-12-20T01:31:51;98637.84;;;3.60;100.00
28181;BME280;15464;50.988;10.318;2023-12-20T01:34:17;98633.47;;;3.61;100.00
28181;BME280;15464;50.988;10.318;2023-12-20T01:36:45;98624.84;;;3.59;100.00
28181;BME280;15464;50.988;10.318;2023-12-20T01:39:11;98632.59;;;3.60;100.00
28181;BME280;15464;50.988;10.318;2023-12-20T01:41:53;98637.09;;;3.58;100.00
28181;BME280;15464;50.988;10.318;2023-12-20T01:44:19;98635.41;;;3.57;100.00
28181;BME280;15464;50.988;10.318;2023-12-20T01:46:47;98624.66;;;3.62;100.00
28181;BME280;15464;50.988;10.318;2023-12-20T01:49:14;98631.56;;;3.63;100.00
28181;BME280;15464;50.988;10.318;2023-12-20T01:51:42;98637.66;;;3.63;100.00
28181;BME280;15464;50.988;10.318;2023-12-20T01:54:09;98631.78;;;3.60;100.00
28181;BME280;15464;50.988;10.318;2023-12-20T01:56:36;98633.47;;;3.61;100.00
28181;BME280;15464;50.988;10.318;2023-12-20T01:59:04;98620.59;;;3.56;100.00
28181;BME280;15464;50.988;10.318;2023-12-20T02:01:31;98630.06;;;3.59;100.00
28181;BME280;15464;50.988;10.318;2023-12-20T02:03:58;98633.63;;;3.58;100.00
28181;BME280;15464;50.988;10.318;2023-12-20T02:06:29;98626.53;;;3.60;100.00
28181;BME280;15464;50.988;10.318;2023-12-20T02:08:57;98621.06;;;3.63;100.00
28181;BME280;15464;50.988;10.318;2023-12-20T02:11:25;98617.13;;;3.70;100.00
28181;BME280;15464;50.988;10.318;2023-12-20T02:13:53;98619.56;;;3.73;100.00
28181;BME280;15464;50.988;10.318;2023-12-20T02:16:21;98605.31;;;3.77;100.00
28181;BME280;15464;50.988;10.318;2023-12-20T02:18:48;98604.38;;;3.78;100.00
28181;BME280;15464;50.988;10.318;2023-12-20T02:21:15;98602.31;;;3.69;100.00
28181;BME280;15464;50.988;10.318;2023-12-20T02:23:42;98592.69;;;3.70;100.00
28181;BME280;15464;50.988;10.318;2023-12-20T02:26:08;98584.94;;;3.68;100.00
28181;BME280;15464;50.988;10.318;2023-12-20T02:28:35;98582.69;;;3.62;100.00
28181;BME280;15464;50.988;10.318;2023-12-20T02:31:02;98564.88;;;3.67;100.00
28181;BME280;15464;50.988;10.318;2023-12-20T02:33:29;98583.25;;;3.67;100.00
28181;BME280;15464;50.988;10.318;2023-12-20T02:35:56;98583.25;;;3.67;100.00
28181;BME280;15464;50.988;10.318;2023-12-20T02:38:23;98578.94;;;3.66;100.00
28181;BME280;15464;50.988;10.318;2023-12-20T02:40:50;98585.03;;;3.67;100.00
28181;BME280;15464;50.988;10.318;2023-12-20T02:43:16;98573.47;;;3.69;100.00
28181;BME280;15464;50.988;10.318;2023-12-20T02:45:43;98559.25;;;3.73;100.00
28181;BME280;15464;50.988;10.318;2023-12-20T02:48:10;98559.44;;;3.70;100.00
28181;BME280;15464;50.988;10.318;2023-12-20T02:50:37;98564.88;;;3.67;100.00
28181;BME280;15464;50.988;10.318;2023-12-20T02:53:03;98569.91;;;3.70;100.00
28181;BME280;15464;50.988;10.318;2023-12-20T02:55:30;98587.56;;;3.68;100.00
28181;BME280;15464;50.988;10.318;2023-12-20T02:57:57;98578.53;;;3.72;100.00
28181;BME280;15464;50.988;10.318;2023-12-20T03:00:24;98578.34;;;3.75;100.00
28181;BME280;15464;50.988;10.318;2023-12-20T03:02:51;98565.22;;;3.75;100.00
28181;BME280;15464;50.988;10.318;2023-12-20T03:05:17;98572.38;;;3.73;100.00
28181;BME280;15464;50.988;10.318;2023-12-20T03:07:44;98581.06;;;3.74;100.00
28181;BME280;15464;50.988;10.318;2023-12-20T03:10:12;98571.44;;;3.74;100.00
28181;BME280;15464;50.988;10.318;2023-12-20T03:12:49;98562.59;;;3.75;100.00
28181;BME280;15464;50.988;10.318;2023-12-20T03:15:16;98562.41;;;3.78;100.00
28181;BME280;15464;50.988;10.318;2023-12-20T03:17:43;98562.41;;;3.78;100.00
28181;BME280;15464;50.988;10.318;2023-12-20T03:20:11;98563.81;;;3.84;100.00
28181;BME280;15464;50.988;10.318;2023-12-20T03:22:37;98565.59;;;3.83;100.00
28181;BME280;15464;50.988;10.318;2023-12-20T03:25:04;98568.88;;;3.87;100.00
28181;BME280;15464;50.988;10.318;2023-12-20T03:27:31;98580.16;;;3.87;100.00
28181;BME280;15464;50.988;10.318;2023-12-20T03:29:58;98577.38;;;3.90;100.00
28181;BME280;15464;50.988;10.318;2023-12-20T03:32:25;98593.09;;;3.90;100.00
28181;BME280;15464;50.988;10.318;2023-12-20T03:34:52;98586.84;;;3.93;100.00
28181;BME280;15464;50.988;10.318;2023-12-20T03:37:19;98591.88;;;3.96;100.00
28181;BME280;15464;50.988;10.318;2023-12-20T03:39:46;98596.94;;;3.99;100.00
28181;BME280;15464;50.988;10.318;2023-12-20T03:42:13;98595.25;;;3.98;100.00
28181;BME280;15464;50.988;10.318;2023-12-20T03:44:39;98597.13;;;3.96;100.00
28181;BME280;15464;50.988;10.318;2023-12-20T03:47:09;98604.16;;;3.95;100.00
28181;BME280;15464;50.988;10.318;2023-12-20T03:49:36;98603.31;;;3.95;100.00
28181;BME280;15464;50.988;10.318;2023-12-20T03:52:05;98605.94;;;3.95;100.00
28181;BME280;15464;50.988;10.318;2023-12-20T03:54:32;98605.94;;;3.95;100.00
28181;BME280;15464;50.988;10.318;2023-12-20T03:56:59;98597.13;;;3.96;100.00
28181;BME280;15464;50.988;10.318;2023-12-20T03:59:26;98608.28;;;3.99;100.00
28181;BME280;15464;50.988;10.318;2023-12-20T04:01:52;98595.88;;;4.01;100.00
28181;BME280;15464;50.988;10.318;2023-12-20T04:04:19;98604.81;;;3.99;100.00
28181;BME280;15464;50.988;10.318;2023-12-20T04:06:46;98611.44;;;4.04;100.00
28181;BME280;15464;50.988;10.318;2023-12-20T04:09:13;98611.44;;;4.04;100.00
28181;BME280;15464;50.988;10.318;2023-12-20T04:11:39;98603.56;;;4.04;100.00
28181;BME280;15464;50.988;10.318;2023-12-20T04:14:06;98599.03;;;4.06;100.00
28181;BME280;15464;50.988;10.318;2023-12-20T04:16:34;98605.44;;;4.02;100.00
28181;BME280;15464;50.988;10.318;2023-12-20T04:19:01;98609.53;;;4.06;100.00
28181;BME280;15464;50.988;10.318;2023-12-20T04:21:29;98613.13;;;4.05;100.00
28181;BME280;15464;50.988;10.318;2023-12-20T04:23:56;98620.25;;;4.03;100.00
28181;BME280;15464;50.988;10.318;2023-12-20T04:26:23;98607.13;;;4.03;100.00
28181;BME280;15464;50.988;10.318;2023-12-20T04:28:49;98606.38;;;4.01;100.00
28181;BME280;15464;50.988;10.318;2023-12-20T04:31:20;98600.09;;;4.04;100.00
28181;BME280;15464;50.988;10.318;2023-12-20T04:33:47;98603.03;;;3.99;100.00
28181;BME280;15464;50.988;10.318;2023-12-20T04:36:14;98595.16;;;3.99;100.00
28181;BME280;15464;50.988;10.318;2023-12-20T04:38:40;98598.50;;;4.01;100.00
28181;BME280;15464;50.988;10.318;2023-12-20T04:41:07;98598.50;;;4.01;100.00
28181;BME280;15464;50.988;10.318;2023-12-20T04:43:34;98594.00;;;4.03;100.00
28181;BME280;15464;50.988;10.318;2023-12-20T04:46:00;98603.84;;;4.00;100.00
28181;BME280;15464;50.988;10.318;2023-12-20T04:48:27;98601.97;;;4.02;100.00
28181;BME280;15464;50.988;10.318;2023-12-20T04:50:54;98606.59;;;3.98;100.00
28181;BME280;15464;50.988;10.318;2023-12-20T04:53:21;98607.03;;;4.05;100.00
28181;BME280;15464;50.988;10.318;2023-12-20T04:55:48;98616.56;;;4.06;100.00
28181;BME280;15464;50.988;10.318;2023-12-20T04:58:14;98615.75;;;4.05;100.00
28181;BME280;15464;50.988;10.318;2023-12-20T05:00:41;98607.66;;;4.09;100.00
28181;BME280;15464;50.988;10.318;2023-12-20T05:03:08;98604.09;;;4.10;100.00
28181;BME280;15464;50.988;10.318;2023-12-20T05:05:35;98609.16;;;4.13;100.00
28181;BME280;15464;50.988;10.318;2023-12-20T05:08:03;98614.84;;;4.19;100.00
28181;BME280;15464;50.988;10.318;2023-12-20T05:10:30;98621.78;;;4.20;100.00
28181;BME280;15464;50.988;10.318;2023-12-20T05:12:57;98627.88;;;4.21;100.00
28181;BME280;15464;50.988;10.318;2023-12-20T05:15:24;98618.22;;;4.21;100.00
28181;BME280;15464;50.988;10.318;2023-12-20T05:17:51;98610.44;;;4.20;100.00
28181;BME280;15464;50.988;10.318;2023-12-20T05:20:18;98620.84;;;4.21;100.00
28181;BME280;15464;50.988;10.318;2023-12-20T05:22:44;98620.53;;;4.26;100.00
28181;BME280;15464;50.988;10.318;2023-12-20T05:25:11;98624.00;;;4.26;100.00
28181;BME280;15464;50.988;10.318;2023-12-20T05:27:38;98634.41;;;4.28;100.00
28181;BME280;15464;50.988;10.318;2023-12-20T05:30:05;98641.34;;;4.29;100.00
28181;BME280;15464;50.988;10.318;2023-12-20T05:32:33;98639.75;;;4.26;100.00
28181;BME280;15464;50.988;10.318;2023-12-20T05:34:59;98653.41;;;4.31;100.00
28181;BME280;15464;50.988;10.318;2023-12-20T05:37:26;98656.25;;;4.28;100.00
28181;BME280;15464;50.988;10.318;2023-12-20T05:39:53;98658.13;;;4.26;100.00
28181;BME280;15464;50.988;10.318;2023-12-20T05:42:20;98653.19;;;4.22;100.00
28181;BME280;15464;50.988;10.318;2023-12-20T05:44:46;98652.44;;;4.20;100.00
28181;BME280;15464;50.988;10.318;2023-12-20T05:47:15;98655.28;;;4.17;100.00
28181;BME280;15464;50.988;10.318;2023-12-20T05:49:43;98651.81;;;4.16;100.00
28181;BME280;15464;50.988;10.318;2023-12-20T05:52:10;98649.94;;;4.18;100.00
28181;BME280;15464;50.988;10.318;2023-12-20T05:54:37;98659.75;;;4.15;100.00
28181;BME280;15464;50.988;10.318;2023-12-20T05:57:04;98668.88;;;4.09;100.00
28181;BME280;15464;50.988;10.318;2023-12-20T05:59:31;98665.22;;;4.12;100.00
28181;BME280;15464;50.988;10.318;2023-12-20T06:01:57;98667.09;;;4.10;100.00
28181;BME280;15464;50.988;10.318;2023-12-20T06:04:24;98673.81;;;4.14;100.00
28181;BME280;15464;50.988;10.318;2023-12-20T06:06:51;98671.09;;;4.15;100.00
28181;BME280;15464;50.988;10.318;2023-12-20T06:09:18;98680.75;;;4.15;100.00
28181;BME280;15464;50.988;10.318;2023-12-20T06:11:44;98656.19;;;4.16;100.00
28181;BME280;15464;50.988;10.318;2023-12-20T06:14:11;98667.19;;;4.08;100.00
28181;BME280;15464;50.988;10.318;2023-12-20T06:16:38;98671.88;;;4.03;100.00
28181;BME280;15464;50.988;10.318;2023-12-20T06:19:04;98667.66;;;4.00;100.00
28181;BME280;15464;50.988;10.318;2023-12-20T06:21:32;98665.25;;;3.97;100.00
28181;BME280;15464;50.988;10.318;2023-12-20T06:23:59;98665.44;;;3.94;100.00
28181;BME280;15464;50.988;10.318;2023-12-20T06:26:26;98663.84;;;3.92;100.00
28181;BME280;15464;50.988;10.318;2023-12-20T06:28:53;98668.44;;;3.88;100.00
28181;BME280;15464;50.988;10.318;2023-12-20T06:31:19;98674.81;;;3.84;100.00
28181;BME280;15464;50.988;10.318;2023-12-20T06:33:46;98678.38;;;3.83;100.00
28181;BME280;15464;50.988;10.318;2023-12-20T06:36:13;98677.63;;;3.81;100.00
28181;BME280;15464;50.988;10.318;2023-12-20T06:38:40;98671.66;;;3.79;100.00
28181;BME280;15464;50.988;10.318;2023-12-20T06:41:08;98680.53;;;3.77;100.00
28181;BME280;15464;50.988;10.318;2023-12-20T06:43:35;98676.72;;;3.68;100.00
28181;BME280;15464;50.988;10.318;2023-12-20T06:46:15;98675.03;;;3.67;100.00
28181;BME280;15464;50.988;10.318;2023-12-20T06:48:42;98680.28;;;3.67;100.00
28181;BME280;15464;50.988;10.318;2023-12-20T06:51:16;98678.88;;;3.61;100.00
28181;BME280;15464;50.988;10.318;2023-12-20T06:53:43;98679.13;;;3.57;100.00
28181;BME280;15464;50.988;10.318;2023-12-20T06:56:10;98680.19;;;3.54;100.00
28181;BME280;15464;50.988;10.318;2023-12-20T06:58:41;98682.13;;;3.51;100.00
28181;BME280;15464;50.988;10.318;2023-12-20T07:01:15;98681.56;;;3.46;100.00
28181;BME280;15464;50.988;10.318;2023-12-20T07:03:42;98689.66;;;3.43;100.00
28181;BME280;15464;50.988;10.318;2023-12-20T07:06:09;98687.09;;;3.41;100.00
28181;BME280;15464;50.988;10.318;2023-12-20T07:08:36;98687.41;;;3.37;100.00
28181;BME280;15464;50.988;10.318;2023-12-20T07:11:03;98689.25;;;3.35;100.00
28181;BME280;15464;50.988;10.318;2023-12-20T07:13:30;98688.31;;;3.36;100.00
28181;BME280;15464;50.988;10.318;2023-12-20T07:15:57;98691.88;;;3.35;100.00
28181;BME280;15464;50.988;10.318;2023-12-20T07:18:23;98692.81;;;3.34;100.00
28181;BME280;15464;50.988;10.318;2023-12-20T07:20:51;98691.19;;;3.31;100.00
28181;BME280;15464;50.988;10.318;2023-12-20T07:23:18;98690.38;;;3.31;100.00
28181;BME280;15464;50.988;10.318;2023-12-20T07:25:46;98691.13;;;3.33;100.00
28181;BME280;15464;50.988;10.318;2023-12-20T07:28:13;98689.25;;;3.35;100.00
28181;BME280;15464;50.988;10.318;2023-12-20T07:30:39;98687.28;;;3.38;100.00
28181;BME280;15464;50.988;10.318;2023-12-20T07:33:06;98690.56;;;3.42;100.00
28181;BME280;15464;50.988;10.318;2023-12-20T07:35:35;98688.31;;;3.50;100.00
28181;BME280;15464;50.988;10.318;2023-12-20T07:38:02;98694.50;;;3.49;100.00
28181;BME280;15464;50.988;10.318;2023-12-20T07:40:29;98692.81;;;3.48;100.00
28181;BME280;15464;50.988;10.318;2023-12-20T07:42:56;98704.81;;;3.52;100.00
28181;BME280;15464;50.988;10.318;2023-12-20T07:45:24;98703.78;;;3.54;100.00
28181;BME280;15464;50.988;10.318;2023-12-20T07:47:51;98702.19;;;3.52;100.00
28181;BME280;15464;50.988;10.318;2023-12-20T07:50:17;98704.50;;;3.56;100.00
28181;BME280;15464;50.988;10.318;2023-12-20T07:52:44;98705.19;;;3.60;100.00
28181;BME280;15464;50.988;10.318;2023-12-20T07:55:11;98702.66;;;3.58;100.00
28181;BME280;15464;50.988;10.318;2023-12-20T07:57:38;98695.53;;;3.60;100.00
28181;BME280;15464;50.988;10.318;2023-12-20T08:00:05;98701.25;;;3.67;100.00
28181;BME280;15464;50.988;10.318;2023-12-20T08:02:32;98713.63;;;3.65;100.00
28181;BME280;15464;50.988;10.318;2023-12-20T08:04:59;98712.84;;;3.63;100.00
28181;BME280;15464;50.988;10.318;2023-12-20T08:07:25;98719.69;;;3.65;100.00
28181;BME280;15464;50.988;10.318;2023-12-20T08:09:52;98716.63;;;3.73;100.00
28181;BME280;15464;50.988;10.318;2023-12-20T08:12:21;98718.31;;;3.74;100.00
28181;BME280;15464;50.988;10.318;2023-12-20T08:14:48;98716.25;;;3.79;100.00
28181;BME280;15464;50.988;10.318;2023-12-20T08:17:14;98728.69;;;3.76;100.00
28181;BME280;15464;50.988;10.318;2023-12-20T08:19:42;98720.94;;;3.74;100.00
28181;BME280;15464;50.988;10.318;2023-12-20T08:22:09;98728.59;;;3.77;100.00
28181;BME280;15464;50.988;10.318;2023-12-20T08:24:36;98726.53;;;3.82;100.00
28181;BME280;15464;50.988;10.318;2023-12-20T08:27:03;98730.66;;;3.86;100.00
28181;BME280;15464;50.988;10.318;2023-12-20T08:29:30;98727.00;;;3.89;100.00
28181;BME280;15464;50.988;10.318;2023-12-20T08:31:57;98721.03;;;3.87;100.00
28181;BME280;15464;50.988;10.318;2023-12-20T08:34:24;98723.06;;;3.82;100.00
28181;BME280;15464;50.988;10.318;2023-12-20T08:36:51;98722.97;;;3.83;100.00
28181;BME280;15464;50.988;10.318;2023-12-20T08:39:18;98721.50;;;3.79;100.00
28181;BME280;15464;50.988;10.318;2023-12-20T08:41:44;98722.03;;;3.84;100.00
28181;BME280;15464;50.988;10.318;2023-12-20T08:44:11;98729.91;;;3.84;100.00
28181;BME280;15464;50.988;10.318;2023-12-20T08:46:38;98728.91;;;3.87;100.00
28181;BME280;15464;50.988;10.318;2023-12-20T08:49:04;98721.84;;;3.87;100.00
28181;BME280;15464;50.988;10.318;2023-12-20T08:51:31;98727.19;;;3.86;100.00
28181;BME280;15464;50.988;10.318;2023-12-20T08:54:00;98729.16;;;3.82;100.00
28181;BME280;15464;50.988;10.318;2023-12-20T08:56:26;98727.28;;;3.84;100.00
28181;BME280;15464;50.988;10.318;2023-12-20T08:58:53;98734.22;;;3.85;100.00
28181;BME280;15464;50.988;10.318;2023-12-20T09:01:20;98731.59;;;3.85;100.00
28181;BME280;15464;50.988;10.318;2023-12-20T09:03:47;98731.59;;;3.85;100.00
28181;BME280;15464;50.988;10.318;2023-12-20T09:06:14;98742.75;;;3.89;100.00
28181;BME280;15464;50.988;10.318;2023-12-20T09:08:41;98731.97;;;3.93;100.00
28181;BME280;15464;50.988;10.318;2023-12-20T09:11:08;98727.47;;;3.95;100.00
28181;BME280;15464;50.988;10.318;2023-12-20T09:13:35;98726.63;;;3.95;100.00
28181;BME280;15464;50.988;10.318;2023-12-20T09:16:02;98714.63;;;3.91;100.00
28181;BME280;15464;50.988;10.318;2023-12-20T09:18:29;98710.03;;;3.94;100.00
28181;BME280;15464;50.988;10.318;2023-12-20T09:20:56;98719.59;;;3.95;100.00
28181;BME280;15464;50.988;10.318;2023-12-20T09:23:23;98711.53;;;3.98;100.00
28181;BME280;15464;50.988;10.318;2023-12-20T09:25:50;98709.66;;;4.00;100.00
28181;BME280;15464;50.988;10.318;2023-12-20T09:28:20;98713.78;;;4.04;100.00
28181;BME280;15464;50.988;10.318;2023-12-20T09:30:47;98716.19;;;4.07;100.00
28181;BME280;15464;50.988;10.318;2023-12-20T09:33:14;98712.47;;;4.12;100.00
28181;BME280;15464;50.988;10.318;2023-12-20T09:35:41;98696.50;;;4.15;100.00
28181;BME280;15464;50.988;10.318;2023-12-20T09:38:08;98701.56;;;4.18;100.00
28181;BME280;15464;50.988;10.318;2023-12-20T09:40:36;98708.88;;;4.13;100.00
28181;BME280;15464;50.988;10.318;2023-12-20T09:43:19;98719.19;;;4.16;100.00
28181;BME280;15464;50.988;10.318;2023-12-20T09:45:53;98707.69;;;4.18;100.00
28181;BME280;15464;50.988;10.318;2023-12-20T09:48:20;98701.75;;;4.15;100.00
28181;BME280;15464;50.988;10.318;2023-12-20T09:50:47;98700.06;;;4.14;100.00
28181;BME280;15464;50.988;10.318;2023-12-20T09:53:20;98699.03;;;4.16;100.00
28181;BME280;15464;50.988;10.318;2023-12-20T09:55:50;98711.88;;;4.21;100.00
28181;BME280;15464;50.988;10.318;2023-12-20T09:58:17;98708.00;;;4.26;100.00
28181;BME280;15464;50.988;10.318;2023-12-20T10:00:44;98705.84;;;4.33;100.00
28181;BME280;15464;50.988;10.318;2023-12-20T10:03:11;98698.25;;;4.28;100.00
28181;BME280;15464;50.988;10.318;2023-12-20T10:05:43;98693.78;;;4.30;100.00
28181;BME280;15464;50.988;10.318;2023-12-20T10:08:11;98692.16;;;4.28;100.00
28181;BME280;15464;50.988;10.318;2023-12-20T10:10:38;98699.28;;;4.26;100.00
28181;BME280;15464;50.988;10.318;2023-12-20T10:13:15;98692.00;;;4.31;100.00
28181;BME280;15464;50.988;10.318;2023-12-20T10:15:42;98686.75;;;4.31;100.00
28181;BME280;15464;50.988;10.318;2023-12-20T10:18:09;98683.44;;;4.27;100.00
28181;BME280;15464;50.988;10.318;2023-12-20T10:23:11;98665.91;;;4.28;100.00
28181;BME280;15464;50.988;10.318;2023-12-20T10:25:39;98664.59;;;4.35;100.00
28181;BME280;15464;50.988;10.318;2023-12-20T10:28:12;98658.00;;;4.42;100.00
28181;BME280;15464;50.988;10.318;2023-12-20T10:30:41;98651.47;;;4.35;100.00
28181;BME280;15464;50.988;10.318;2023-12-20T10:33:09;98658.19;;;4.39;100.00
28181;BME280;15464;50.988;10.318;2023-12-20T10:35:38;98653.69;;;4.41;100.00
28181;BME280;15464;50.988;10.318;2023-12-20T10:38:10;98653.19;;;4.49;100.00
28181;BME280;15464;50.988;10.318;2023-12-20T10:40:38;98648.38;;;4.55;100.00
28181;BME280;15464;50.988;10.318;2023-12-20T10:43:05;98653.81;;;4.52;100.00
28181;BME280;15464;50.988;10.318;2023-12-20T10:45:32;98663.16;;;4.56;100.00
28181;BME280;15464;50.988;10.318;2023-12-20T10:47:59;98663.16;;;4.56;100.00
28181;BME280;15464;50.988;10.318;2023-12-20T10:50:28;98642.28;;;4.55;100.00
28181;BME280;15464;50.988;10.318;2023-12-20T10:52:57;98648.06;;;4.60;100.00
28181;BME280;15464;50.988;10.318;2023-12-20T10:55:25;98646.28;;;4.60;100.00
28181;BME280;15464;50.988;10.318;2023-12-20T10:58:00;98654.69;;;4.65;100.00
28181;BME280;15464;50.988;10.318;2023-12-20T11:00:29;98635.56;;;4.63;100.00
28181;BME280;15464;50.988;10.318;2023-12-20T11:03:00;98642.31;;;4.67;100.00
28181;BME280;15464;50.988;10.318;2023-12-20T11:11:26;98629.91;;;4.69;100.00
28181;BME280;15464;50.988;10.318;2023-12-20T11:14:16;98623.63;;;4.72;100.00
28181;BME280;15464;50.988;10.318;2023-12-20T11:16:43;98629.19;;;4.67;100.00
28181;BME280;15464;50.988;10.318;2023-12-20T11:19:20;98635.91;;;4.71;100.00
28181;BME280;15464;50.988;10.318;2023-12-20T11:21:47;98632.34;;;4.72;100.00
28181;BME280;15464;50.988;10.318;2023-12-20T11:24:15;98631.41;;;4.73;100.00
28181;BME280;15464;50.988;10.318;2023-12-20T11:26:47;98618.25;;;4.73;100.00
28181;BME280;15464;50.988;10.318;2023-12-20T11:29:31;98624.06;;;4.78;100.00
28181;BME280;15464;50.988;10.318;2023-12-20T11:34:53;98624.06;;;4.78;100.00
28181;BME280;15464;50.988;10.318;2023-12-20T11:37:21;98621.75;;;4.74;100.00
28181;BME280;15464;50.988;10.318;2023-12-20T11:39:55;98616.34;;;4.75;100.00
28181;BME280;15464;50.988;10.318;2023-12-20T11:42:23;98616.47;;;4.74;100.00
28181;BME280;15464;50.988;10.318;2023-12-20T11:44:50;98600.81;;;4.72;100.00
28181;BME280;15464;50.988;10.318;2023-12-20T11:47:16;98601.97;;;4.68;100.00
28181;BME280;15464;50.988;10.318;2023-12-20T11:49:48;98593.38;;;4.79;100.00
28181;BME280;15464;50.988;10.318;2023-12-20T11:52:15;98586.84;;;4.84;100.00
28181;BME280;15464;50.988;10.318;2023-12-20T11:54:42;98589.69;;;4.94;100.00
28181;BME280;15464;50.988;10.318;2023-12-20T11:57:09;98596.72;;;4.94;100.00
28181;BME280;15464;50.988;10.318;2023-12-20T11:59:36;98592.31;;;4.94;100.00
28181;BME280;15464;50.988;10.318;2023-12-20T12:02:03;98585.16;;;4.96;100.00
28181;BME280;15464;50.988;10.318;2023-12-20T12:04:30;98577.91;;;5.00;100.00
28181;BME280;15464;50.988;10.318;2023-12-20T12:06:57;98582.78;;;4.93;99.60
28181;BME280;15464;50.988;10.318;2023-12-20T12:09:24;98579.06;;;4.96;100.00
28181;BME280;15464;50.988;10.318;2023-12-20T12:11:50;98577.19;;;4.98;100.00
28181;BME280;15464;50.988;10.318;2023-12-20T12:14:17;98584.97;;;4.99;100.00
28181;BME280;15464;50.988;10.318;2023-12-20T12:16:46;98586.00;;;4.97;100.00
28181;BME280;15464;50.988;10.318;2023-12-20T12:19:25;98572.03;;;4.96;100.00
28181;BME280;15464;50.988;10.318;2023-12-20T12:24:41;98562.88;;;5.02;100.00
28181;BME280;15464;50.988;10.318;2023-12-20T12:27:08;98554.25;;;5.00;100.00
28181;BME280;15464;50.988;10.318;2023-12-20T12:29:36;98559.50;;;5.00;100.00
28181;BME280;15464;50.988;10.318;2023-12-20T12:32:09;98558.06;;;4.96;100.00
28181;BME280;15464;50.988;10.318;2023-12-20T12:34:36;98551.53;;;5.01;100.00
28181;BME280;15464;50.988;10.318;2023-12-20T12:37:03;98549.97;;;4.99;100.00
28181;BME280;15464;50.988;10.318;2023-12-20T12:39:31;98543.75;;;5.00;100.00
28181;BME280;15464;50.988;10.318;2023-12-20T12:41:57;98535.66;;;5.03;100.00
28181;BME280;15464;50.988;10.318;2023-12-20T12:44:24;98534.06;;;5.00;100.00
28181;BME280;15464;50.988;10.318;2023-12-20T12:46:52;98529.78;;;4.99;100.00
28181;BME280;15464;50.988;10.318;2023-12-20T12:49:20;98517.47;;;5.00;100.00
28181;BME280;15464;50.988;10.318;2023-12-20T12:51:48;98519.38;;;4.98;100.00
28181;BME280;15464;50.988;10.318;2023-12-20T12:54:15;98519.56;;;4.95;100.00
28181;BME280;15464;50.988;10.318;2023-12-20T12:56:44;98526.75;;;4.93;100.00
28181;BME280;15464;50.988;10.318;2023-12-20T12:59:11;98515.06;;;4.97;100.00
28181;BME280;15464;50.988;10.318;2023-12-20T13:01:38;98507.38;;;4.94;100.00
28181;BME280;15464;50.988;10.318;2023-12-20T13:04:06;98502.75;;;4.97;100.00
28181;BME280;15464;50.988;10.318;2023-12-20T13:06:37;98494.22;;;4.94;100.00